sensor_id;sensor_type;location;lat;lon;timestamp;P1;durP1;ratioP1;P2;durP2;ratioP2
22764;SDS011;11549;50.852;3.816;2023-02-20T00:01:35;34.92;;;17.33;;
22764;SDS011;11549;50.852;3.816;2023-02-20T00:04:03;40.55;;;19.40;;
22764;SDS011;11549;50.852;3.816;2023-02-20T00:06:32;31.98;;;18.45;;
22764;SDS011;11549;50.852;3.816;2023-02-20T00:09:00;37.60;;;18.65;;
22764;SDS011;11549;50.852;3.816;2023-02-20T00:11:29;43.85;;;20.17;;
22764;SDS011;11549;50.852;3.816;2023-02-20T00:13:57;36.42;;;18.98;;
22764;SDS011;11549;50.852;3.816;2023-02-20T00:16:27;40.20;;;19.50;;
22764;SDS011;11549;50.852;3.816;2023-02-20T00:18:55;38.67;;;19.83;;
22764;SDS011;11549;50.852;3.816;2023-02-20T00:21:23;40.97;;;19.73;;
22764;SDS011;11549;50.852;3.816;2023-02-20T00:23:51;36.58;;;18.55;;
22764;SDS011;11549;50.852;3.816;2023-02-20T00:26:20;42.45;;;20.67;;
22764;SDS011;11549;50.852;3.816;2023-02-20T00:28:48;42.17;;;20.45;;
22764;SDS011;11549;50.852;3.816;2023-02-20T00:31:16;37.53;;;19.55;;
22764;SDS011;11549;50.852;3.816;2023-02-20T00:33:47;41.33;;;19.20;;
22764;SDS011;11549;50.852;3.816;2023-02-20T00:36:16;41.72;;;19.20;;
22764;SDS011;11549;50.852;3.816;2023-02-20T00:38:45;37.45;;;20.23;;
22764;SDS011;11549;50.852;3.816;2023-02-20T00:41:13;43.63;;;19.50;;
22764;SDS011;11549;50.852;3.816;2023-02-20T00:43:43;37.97;;;18.98;;
22764;SDS011;11549;50.852;3.816;2023-02-20T00:46:12;35.42;;;19.50;;
22764;SDS011;11549;50.852;3.816;2023-02-20T00:48:41;34.65;;;18.58;;
22764;SDS011;11549;50.852;3.816;2023-02-20T00:51:12;34.95;;;17.63;;
22764;SDS011;11549;50.852;3.816;2023-02-20T00:53:40;35.67;;;17.50;;
22764;SDS011;11549;50.852;3.816;2023-02-20T00:56:08;38.42;;;17.80;;
22764;SDS011;11549;50.852;3.816;2023-02-20T00:58:37;33.45;;;18.02;;
22764;SDS011;11549;50.852;3.816;2023-02-20T01:01:05;33.22;;;16.90;;
22764;SDS011;11549;50.852;3.816;2023-02-20T01:03:34;42.42;;;17.27;;
22764;SDS011;11549;50.852;3.816;2023-02-20T01:06:02;43.05;;;16.70;;
22764;SDS011;11549;50.852;3.816;2023-02-20T01:08:32;41.95;;;15.68;;
22764;SDS011;11549;50.852;3.816;2023-02-20T01:11:00;36.75;;;15.93;;
22764;SDS011;11549;50.852;3.816;2023-02-20T01:13:29;31.45;;;15.18;;
22764;SDS011;11549;50.852;3.816;2023-02-20T01:15:57;36.10;;;16.10;;
22764;SDS011;11549;50.852;3.816;2023-02-20T01:18:26;36.45;;;15.60;;
22764;SDS011;11549;50.852;3.816;2023-02-20T01:20:54;33.60;;;15.13;;
22764;SDS011;11549;50.852;3.816;2023-02-20T01:23:23;42.65;;;16.92;;
22764;SDS011;11549;50.852;3.816;2023-02-20T01:25:52;33.20;;;15.60;;
22764;SDS011;11549;50.852;3.816;2023-02-20T01:28:21;37.28;;;15.57;;
22764;SDS011;11549;50.852;3.816;2023-02-20T01:30:49;38.30;;;16.80;;
22764;SDS011;11549;50.852;3.816;2023-02-20T01:33:18;38.03;;;17.15;;
22764;SDS011;11549;50.852;3.816;2023-02-20T01:35:46;34.05;;;15.85;;
22764;SDS011;11549;50.852;3.816;2023-02-20T01:38:15;35.75;;;15.77;;
22764;SDS011;11549;50.852;3.816;2023-02-20T01:40:45;35.58;;;15.85;;
22764;SDS011;11549;50.852;3.816;2023-02-20T01:43:16;33.60;;;15.68;;
22764;SDS011;11549;50.852;3.816;2023-02-20T01:45:44;32.50;;;14.63;;
22764;SDS011;11549;50.852;3.816;2023-02-20T01:48:18;32.67;;;14.63;;
22764;SDS011;11549;50.852;3.816;2023-02-20T01:50:48;33.50;;;14.35;;
22764;SDS011;11549;50.852;3.816;2023-02-20T01:53:20;33.35;;;14.00;;
22764;SDS011;11549;50.852;3.816;2023-02-20T01:55:50;32.83;;;14.02;;
22764;SDS011;11549;50.852;3.816;2023-02-20T01:58:23;33.65;;;13.52;;
22764;SDS011;11549;50.852;3.816;2023-02-20T02:00:54;31.90;;;13.10;;
22764;SDS011;11549;50.852;3.816;2023-02-20T02:03:25;32.75;;;12.88;;
22764;SDS011;11549;50.852;3.816;2023-02-20T02:05:59;29.70;;;12.95;;
22764;SDS011;11549;50.852;3.816;2023-02-20T02:08:31;31.88;;;12.60;;
22764;SDS011;11549;50.852;3.816;2023-02-20T02:11:04;31.70;;;12.73;;
22764;SDS011;11549;50.852;3.816;2023-02-20T02:13:37;25.80;;;12.63;;
22764;SDS011;11549;50.852;3.816;2023-02-20T02:16:08;26.77;;;12.48;;
22764;SDS011;11549;50.852;3.816;2023-02-20T02:18:55;25.55;;;11.90;;
22764;SDS011;11549;50.852;3.816;2023-02-20T02:24:47;31.23;;;11.32;;
22764;SDS011;11549;50.852;3.816;2023-02-20T02:28:12;26.38;;;11.57;;
22764;SDS011;11549;50.852;3.816;2023-02-20T02:37:21;29.02;;;11.77;;
22764;SDS011;11549;50.852;3.816;2023-02-20T02:39:55;33.20;;;12.43;;
22764;SDS011;11549;50.852;3.816;2023-02-20T02:42:29;28.42;;;11.75;;
22764;SDS011;11549;50.852;3.816;2023-02-20T02:45:07;30.20;;;10.75;;
22764;SDS011;11549;50.852;3.816;2023-02-20T02:47:40;29.20;;;10.80;;
22764;SDS011;11549;50.852;3.816;2023-02-20T02:50:17;28.88;;;10.30;;
22764;SDS011;11549;50.852;3.816;2023-02-20T02:52:51;24.73;;;10.30;;
22764;SDS011;11549;50.852;3.816;2023-02-20T02:55:23;29.60;;;10.65;;
22764;SDS011;11549;50.852;3.816;2023-02-20T02:57:53;25.65;;;11.00;;
22764;SDS011;11549;50.852;3.816;2023-02-20T03:00:22;30.13;;;11.05;;
22764;SDS011;11549;50.852;3.816;2023-02-20T03:02:55;29.33;;;10.57;;
22764;SDS011;11549;50.852;3.816;2023-02-20T03:05:27;24.90;;;10.27;;
22764;SDS011;11549;50.852;3.816;2023-02-20T03:08:08;30.33;;;10.85;;
22764;SDS011;11549;50.852;3.816;2023-02-20T03:10:48;34.58;;;10.55;;
22764;SDS011;11549;50.852;3.816;2023-02-20T03:13:19;32.10;;;10.20;;
22764;SDS011;11549;50.852;3.816;2023-02-20T03:16:02;27.92;;;10.65;;
22764;SDS011;11549;50.852;3.816;2023-02-20T03:18:34;30.20;;;11.07;;
22764;SDS011;11549;50.852;3.816;2023-02-20T03:21:06;28.30;;;10.32;;
22764;SDS011;11549;50.852;3.816;2023-02-20T03:23:40;28.25;;;11.40;;
22764;SDS011;11549;50.852;3.816;2023-02-20T03:26:14;28.25;;;10.93;;
22764;SDS011;11549;50.852;3.816;2023-02-20T03:28:49;30.17;;;10.43;;
22764;SDS011;11549;50.852;3.816;2023-02-20T03:33:55;28.75;;;10.35;;
22764;SDS011;11549;50.852;3.816;2023-02-20T03:36:48;27.52;;;10.13;;
22764;SDS011;11549;50.852;3.816;2023-02-20T03:39:38;29.95;;;10.18;;
22764;SDS011;11549;50.852;3.816;2023-02-20T03:42:28;26.85;;;10.43;;
22764;SDS011;11549;50.852;3.816;2023-02-20T03:45:18;28.65;;;10.40;;
22764;SDS011;11549;50.852;3.816;2023-02-20T03:47:50;26.30;;;9.68;;
22764;SDS011;11549;50.852;3.816;2023-02-20T03:50:21;25.15;;;9.98;;
22764;SDS011;11549;50.852;3.816;2023-02-20T03:52:49;32.88;;;10.07;;
22764;SDS011;11549;50.852;3.816;2023-02-20T03:55:19;28.10;;;10.60;;
22764;SDS011;11549;50.852;3.816;2023-02-20T03:57:51;29.05;;;11.07;;
22764;SDS011;11549;50.852;3.816;2023-02-20T04:00:23;29.85;;;10.88;;
22764;SDS011;11549;50.852;3.816;2023-02-20T04:02:56;29.75;;;10.70;;
22764;SDS011;11549;50.852;3.816;2023-02-20T04:05:31;26.02;;;9.90;;
22764;SDS011;11549;50.852;3.816;2023-02-20T04:08:03;26.13;;;9.75;;
22764;SDS011;11549;50.852;3.816;2023-02-20T04:10:36;22.15;;;9.65;;
22764;SDS011;11549;50.852;3.816;2023-02-20T04:13:10;24.42;;;9.35;;
22764;SDS011;11549;50.852;3.816;2023-02-20T04:15:41;23.40;;;10.00;;
22764;SDS011;11549;50.852;3.816;2023-02-20T04:18:10;29.02;;;10.32;;
22764;SDS011;11549;50.852;3.816;2023-02-20T04:20:41;30.15;;;10.23;;
22764;SDS011;11549;50.852;3.816;2023-02-20T04:23:13;23.30;;;10.85;;
22764;SDS011;11549;50.852;3.816;2023-02-20T04:25:45;26.92;;;10.93;;
22764;SDS011;11549;50.852;3.816;2023-02-20T04:28:18;23.80;;;10.13;;
22764;SDS011;11549;50.852;3.816;2023-02-20T04:30:48;26.85;;;10.00;;
22764;SDS011;11549;50.852;3.816;2023-02-20T04:33:18;26.90;;;9.90;;
22764;SDS011;11549;50.852;3.816;2023-02-20T04:35:47;26.20;;;10.45;;
22764;SDS011;11549;50.852;3.816;2023-02-20T04:38:16;23.65;;;9.23;;
22764;SDS011;11549;50.852;3.816;2023-02-20T04:40:46;29.08;;;10.43;;
22764;SDS011;11549;50.852;3.816;2023-02-20T04:43:16;18.92;;;9.60;;
22764;SDS011;11549;50.852;3.816;2023-02-20T04:45:44;21.73;;;9.40;;
22764;SDS011;11549;50.852;3.816;2023-02-20T04:48:12;31.27;;;10.55;;
22764;SDS011;11549;50.852;3.816;2023-02-20T04:50:41;24.88;;;9.73;;
22764;SDS011;11549;50.852;3.816;2023-02-20T04:53:09;24.27;;;9.80;;
22764;SDS011;11549;50.852;3.816;2023-02-20T04:55:38;25.92;;;9.43;;
22764;SDS011;11549;50.852;3.816;2023-02-20T04:58:07;19.85;;;8.25;;
22764;SDS011;11549;50.852;3.816;2023-02-20T05:00:36;21.23;;;8.63;;
22764;SDS011;11549;50.852;3.816;2023-02-20T05:03:04;18.63;;;9.30;;
22764;SDS011;11549;50.852;3.816;2023-02-20T05:05:32;23.33;;;8.65;;
22764;SDS011;11549;50.852;3.816;2023-02-20T05:08:02;22.48;;;9.00;;
22764;SDS011;11549;50.852;3.816;2023-02-20T05:10:32;21.60;;;9.10;;
22764;SDS011;11549;50.852;3.816;2023-02-20T05:13:02;20.85;;;8.73;;
22764;SDS011;11549;50.852;3.816;2023-02-20T05:15:32;20.75;;;8.60;;
22764;SDS011;11549;50.852;3.816;2023-02-20T05:18:00;23.58;;;9.90;;
22764;SDS011;11549;50.852;3.816;2023-02-20T05:20:29;25.88;;;9.35;;
22764;SDS011;11549;50.852;3.816;2023-02-20T05:23:15;23.75;;;9.80;;
22764;SDS011;11549;50.852;3.816;2023-02-20T05:25:44;23.92;;;9.40;;
22764;SDS011;11549;50.852;3.816;2023-02-20T05:28:12;18.48;;;8.85;;
22764;SDS011;11549;50.852;3.816;2023-02-20T05:30:42;26.33;;;10.10;;
22764;SDS011;11549;50.852;3.816;2023-02-20T05:33:10;23.45;;;9.77;;
22764;SDS011;11549;50.852;3.816;2023-02-20T05:35:38;22.45;;;10.68;;
22764;SDS011;11549;50.852;3.816;2023-02-20T05:38:07;22.48;;;10.30;;
22764;SDS011;11549;50.852;3.816;2023-02-20T05:40:35;25.23;;;11.30;;
22764;SDS011;11549;50.852;3.816;2023-02-20T05:43:03;28.95;;;11.52;;
22764;SDS011;11549;50.852;3.816;2023-02-20T05:45:31;25.40;;;11.15;;
22764;SDS011;11549;50.852;3.816;2023-02-20T05:48:02;27.45;;;11.65;;
22764;SDS011;11549;50.852;3.816;2023-02-20T05:50:30;26.35;;;12.05;;
22764;SDS011;11549;50.852;3.816;2023-02-20T05:52:58;25.63;;;12.40;;
22764;SDS011;11549;50.852;3.816;2023-02-20T05:55:27;29.02;;;13.02;;
22764;SDS011;11549;50.852;3.816;2023-02-20T05:57:56;28.33;;;11.60;;
22764;SDS011;11549;50.852;3.816;2023-02-20T06:00:24;27.20;;;13.15;;
22764;SDS011;11549;50.852;3.816;2023-02-20T06:02:53;27.92;;;12.45;;
22764;SDS011;11549;50.852;3.816;2023-02-20T06:05:23;30.45;;;12.30;;
22764;SDS011;11549;50.852;3.816;2023-02-20T06:07:51;29.00;;;12.70;;
22764;SDS011;11549;50.852;3.816;2023-02-20T06:10:20;27.88;;;12.80;;
22764;SDS011;11549;50.852;3.816;2023-02-20T06:12:48;25.77;;;12.57;;
22764;SDS011;11549;50.852;3.816;2023-02-20T06:15:17;26.88;;;13.00;;
22764;SDS011;11549;50.852;3.816;2023-02-20T06:17:45;30.60;;;13.05;;
22764;SDS011;11549;50.852;3.816;2023-02-20T06:20:13;32.58;;;13.82;;
22764;SDS011;11549;50.852;3.816;2023-02-20T06:22:43;27.60;;;12.65;;
22764;SDS011;11549;50.852;3.816;2023-02-20T06:25:11;29.00;;;13.65;;
22764;SDS011;11549;50.852;3.816;2023-02-20T06:27:39;27.88;;;12.90;;
22764;SDS011;11549;50.852;3.816;2023-02-20T06:30:08;31.60;;;12.98;;
22764;SDS011;11549;50.852;3.816;2023-02-20T06:32:37;25.73;;;12.23;;
22764;SDS011;11549;50.852;3.816;2023-02-20T06:35:06;27.08;;;12.07;;
22764;SDS011;11549;50.852;3.816;2023-02-20T06:37:35;28.15;;;11.82;;
22764;SDS011;11549;50.852;3.816;2023-02-20T06:40:05;27.13;;;11.68;;
22764;SDS011;11549;50.852;3.816;2023-02-20T06:42:34;27.00;;;12.13;;
22764;SDS011;11549;50.852;3.816;2023-02-20T06:45:03;25.67;;;11.40;;
22764;SDS011;11549;50.852;3.816;2023-02-20T06:47:32;27.38;;;11.50;;
22764;SDS011;11549;50.852;3.816;2023-02-20T06:50:00;32.55;;;12.13;;
22764;SDS011;11549;50.852;3.816;2023-02-20T06:52:28;26.73;;;11.13;;
22764;SDS011;11549;50.852;3.816;2023-02-20T06:54:57;24.60;;;10.82;;
22764;SDS011;11549;50.852;3.816;2023-02-20T06:57:26;26.10;;;11.52;;
22764;SDS011;11549;50.852;3.816;2023-02-20T06:59:55;24.45;;;11.63;;
22764;SDS011;11549;50.852;3.816;2023-02-20T07:02:23;24.95;;;11.35;;
22764;SDS011;11549;50.852;3.816;2023-02-20T07:04:51;24.10;;;10.65;;
22764;SDS011;11549;50.852;3.816;2023-02-20T07:07:19;24.42;;;10.88;;
22764;SDS011;11549;50.852;3.816;2023-02-20T07:09:48;28.25;;;10.85;;
22764;SDS011;11549;50.852;3.816;2023-02-20T07:12:16;24.73;;;10.45;;
22764;SDS011;11549;50.852;3.816;2023-02-20T07:14:46;23.65;;;10.40;;
22764;SDS011;11549;50.852;3.816;2023-02-20T07:17:17;22.85;;;9.63;;
22764;SDS011;11549;50.852;3.816;2023-02-20T07:19:45;27.02;;;10.05;;
22764;SDS011;11549;50.852;3.816;2023-02-20T07:22:13;22.33;;;9.75;;
22764;SDS011;11549;50.852;3.816;2023-02-20T07:24:42;24.02;;;9.48;;
22764;SDS011;11549;50.852;3.816;2023-02-20T07:27:10;27.85;;;10.73;;
22764;SDS011;11549;50.852;3.816;2023-02-20T07:29:39;24.10;;;9.73;;
22764;SDS011;11549;50.852;3.816;2023-02-20T07:32:09;23.50;;;9.43;;
22764;SDS011;11549;50.852;3.816;2023-02-20T07:34:37;23.02;;;9.98;;
22764;SDS011;11549;50.852;3.816;2023-02-20T07:37:09;20.50;;;9.23;;
22764;SDS011;11549;50.852;3.816;2023-02-20T07:39:38;25.05;;;9.90;;
22764;SDS011;11549;50.852;3.816;2023-02-20T07:42:06;27.08;;;10.38;;
22764;SDS011;11549;50.852;3.816;2023-02-20T07:44:35;24.55;;;10.80;;
22764;SDS011;11549;50.852;3.816;2023-02-20T07:47:03;22.95;;;9.90;;
22764;SDS011;11549;50.852;3.816;2023-02-20T07:49:33;27.20;;;9.73;;
22764;SDS011;11549;50.852;3.816;2023-02-20T07:52:02;23.55;;;9.65;;
22764;SDS011;11549;50.852;3.816;2023-02-20T07:54:30;24.17;;;10.50;;
22764;SDS011;11549;50.852;3.816;2023-02-20T07:56:59;23.20;;;10.50;;
22764;SDS011;11549;50.852;3.816;2023-02-20T07:59:27;21.70;;;9.95;;
22764;SDS011;11549;50.852;3.816;2023-02-20T08:01:55;26.55;;;9.93;;
22764;SDS011;11549;50.852;3.816;2023-02-20T08:04:24;27.42;;;10.30;;
22764;SDS011;11549;50.852;3.816;2023-02-20T08:06:54;29.10;;;10.90;;
22764;SDS011;11549;50.852;3.816;2023-02-20T08:09:22;26.23;;;10.00;;
22764;SDS011;11549;50.852;3.816;2023-02-20T08:11:50;20.20;;;10.07;;
22764;SDS011;11549;50.852;3.816;2023-02-20T08:14:19;25.15;;;10.27;;
22764;SDS011;11549;50.852;3.816;2023-02-20T08:16:47;20.80;;;9.73;;
22764;SDS011;11549;50.852;3.816;2023-02-20T08:19:15;24.60;;;9.30;;
22764;SDS011;11549;50.852;3.816;2023-02-20T08:21:44;21.65;;;9.73;;
22764;SDS011;11549;50.852;3.816;2023-02-20T08:24:13;24.35;;;9.73;;
22764;SDS011;11549;50.852;3.816;2023-02-20T08:26:42;20.98;;;7.93;;
22764;SDS011;11549;50.852;3.816;2023-02-20T08:29:11;25.98;;;9.18;;
22764;SDS011;11549;50.852;3.816;2023-02-20T08:31:39;17.67;;;8.25;;
22764;SDS011;11549;50.852;3.816;2023-02-20T08:34:08;21.70;;;8.77;;
22764;SDS011;11549;50.852;3.816;2023-02-20T08:36:36;23.77;;;9.35;;
22764;SDS011;11549;50.852;3.816;2023-02-20T08:39:06;18.65;;;8.77;;
22764;SDS011;11549;50.852;3.816;2023-02-20T08:41:41;24.85;;;9.45;;
22764;SDS011;11549;50.852;3.816;2023-02-20T08:44:10;19.30;;;8.82;;
22764;SDS011;11549;50.852;3.816;2023-02-20T08:46:44;24.58;;;9.55;;
22764;SDS011;11549;50.852;3.816;2023-02-20T08:51:43;19.65;;;8.55;;
22764;SDS011;11549;50.852;3.816;2023-02-20T08:54:12;23.10;;;9.32;;
22764;SDS011;11549;50.852;3.816;2023-02-20T08:56:42;19.50;;;8.90;;
22764;SDS011;11549;50.852;3.816;2023-02-20T08:59:11;25.83;;;9.65;;
22764;SDS011;11549;50.852;3.816;2023-02-20T09:01:39;21.63;;;9.55;;
22764;SDS011;11549;50.852;3.816;2023-02-20T09:04:08;23.55;;;9.52;;
22764;SDS011;11549;50.852;3.816;2023-02-20T09:06:37;22.30;;;9.38;;
22764;SDS011;11549;50.852;3.816;2023-02-20T09:09:05;23.02;;;8.73;;
22764;SDS011;11549;50.852;3.816;2023-02-20T09:11:34;23.20;;;8.38;;
22764;SDS011;11549;50.852;3.816;2023-02-20T09:14:04;19.95;;;8.55;;
22764;SDS011;11549;50.852;3.816;2023-02-20T09:16:32;23.88;;;9.30;;
22764;SDS011;11549;50.852;3.816;2023-02-20T09:19:02;21.23;;;8.98;;
22764;SDS011;11549;50.852;3.816;2023-02-20T09:21:32;20.08;;;9.02;;
22764;SDS011;11549;50.852;3.816;2023-02-20T09:24:01;19.27;;;8.75;;
22764;SDS011;11549;50.852;3.816;2023-02-20T09:26:32;17.17;;;9.23;;
22764;SDS011;11549;50.852;3.816;2023-02-20T09:29:01;17.30;;;9.10;;
22764;SDS011;11549;50.852;3.816;2023-02-20T09:31:31;20.63;;;9.18;;
22764;SDS011;11549;50.852;3.816;2023-02-20T09:33:59;18.13;;;7.90;;
22764;SDS011;11549;50.852;3.816;2023-02-20T09:36:29;17.35;;;8.07;;
22764;SDS011;11549;50.852;3.816;2023-02-20T09:38:58;20.73;;;8.60;;
22764;SDS011;11549;50.852;3.816;2023-02-20T09:41:32;16.65;;;7.65;;
22764;SDS011;11549;50.852;3.816;2023-02-20T09:44:11;17.38;;;8.00;;
22764;SDS011;11549;50.852;3.816;2023-02-20T09:49:14;19.83;;;7.70;;
22764;SDS011;11549;50.852;3.816;2023-02-20T09:51:48;18.80;;;8.60;;
22764;SDS011;11549;50.852;3.816;2023-02-20T09:54:21;20.55;;;7.72;;
22764;SDS011;11549;50.852;3.816;2023-02-20T09:56:53;19.65;;;8.93;;
22764;SDS011;11549;50.852;3.816;2023-02-20T09:59:26;19.15;;;8.10;;
22764;SDS011;11549;50.852;3.816;2023-02-20T10:01:58;17.83;;;8.75;;
22764;SDS011;11549;50.852;3.816;2023-02-20T10:04:30;18.30;;;8.10;;
22764;SDS011;11549;50.852;3.816;2023-02-20T10:09:34;20.45;;;9.48;;
22764;SDS011;11549;50.852;3.816;2023-02-20T10:12:04;17.38;;;8.32;;
22764;SDS011;11549;50.852;3.816;2023-02-20T10:14:48;21.42;;;9.63;;
22764;SDS011;11549;50.852;3.816;2023-02-20T10:17:39;16.95;;;8.88;;
22764;SDS011;11549;50.852;3.816;2023-02-20T10:20:16;16.48;;;8.93;;
22764;SDS011;11549;50.852;3.816;2023-02-20T10:22:52;18.50;;;9.32;;
22764;SDS011;11549;50.852;3.816;2023-02-20T10:25:29;17.10;;;8.45;;
22764;SDS011;11549;50.852;3.816;2023-02-20T10:28:02;17.92;;;8.20;;
22764;SDS011;11549;50.852;3.816;2023-02-20T10:30:35;20.55;;;8.25;;
22764;SDS011;11549;50.852;3.816;2023-02-20T10:33:15;16.13;;;7.78;;
22764;SDS011;11549;50.852;3.816;2023-02-20T10:35:49;15.98;;;8.40;;
22764;SDS011;11549;50.852;3.816;2023-02-20T10:38:23;19.08;;;8.65;;
22764;SDS011;11549;50.852;3.816;2023-02-20T10:40:57;16.08;;;7.78;;
22764;SDS011;11549;50.852;3.816;2023-02-20T10:43:34;17.90;;;8.40;;
22764;SDS011;11549;50.852;3.816;2023-02-20T10:46:08;15.95;;;7.03;;
22764;SDS011;11549;50.852;3.816;2023-02-20T10:48:42;18.15;;;7.80;;
22764;SDS011;11549;50.852;3.816;2023-02-20T10:51:11;16.75;;;7.20;;
22764;SDS011;11549;50.852;3.816;2023-02-20T10:56:15;20.58;;;7.15;;
22764;SDS011;11549;50.852;3.816;2023-02-20T10:58:48;15.60;;;7.57;;
22764;SDS011;11549;50.852;3.816;2023-02-20T11:01:25;16.08;;;7.38;;
22764;SDS011;11549;50.852;3.816;2023-02-20T11:03:56;16.73;;;6.72;;
22764;SDS011;11549;50.852;3.816;2023-02-20T11:06:29;18.67;;;6.82;;
22764;SDS011;11549;50.852;3.816;2023-02-20T11:09:00;18.15;;;7.40;;
22764;SDS011;11549;50.852;3.816;2023-02-20T11:11:30;15.93;;;6.07;;
22764;SDS011;11549;50.852;3.816;2023-02-20T11:14:07;14.88;;;6.47;;
22764;SDS011;11549;50.852;3.816;2023-02-20T11:16:40;17.05;;;6.25;;
22764;SDS011;11549;50.852;3.816;2023-02-20T11:19:16;16.85;;;6.32;;
22764;SDS011;11549;50.852;3.816;2023-02-20T11:21:49;14.00;;;6.28;;
22764;SDS011;11549;50.852;3.816;2023-02-20T11:24:31;12.18;;;6.22;;
22764;SDS011;11549;50.852;3.816;2023-02-20T11:27:03;17.88;;;7.07;;
22764;SDS011;11549;50.852;3.816;2023-02-20T11:29:36;16.40;;;6.38;;
22764;SDS011;11549;50.852;3.816;2023-02-20T11:32:24;16.88;;;6.57;;
22764;SDS011;11549;50.852;3.816;2023-02-20T11:35:19;15.15;;;5.93;;
22764;SDS011;11549;50.852;3.816;2023-02-20T11:41:05;13.60;;;7.05;;
22764;SDS011;11549;50.852;3.816;2023-02-20T11:44:05;21.63;;;6.60;;
22764;SDS011;11549;50.852;3.816;2023-02-20T11:46:46;16.80;;;6.10;;
22764;SDS011;11549;50.852;3.816;2023-02-20T11:49:22;17.50;;;6.07;;
22764;SDS011;11549;50.852;3.816;2023-02-20T11:51:55;13.38;;;6.10;;
22764;SDS011;11549;50.852;3.816;2023-02-20T11:54:34;13.18;;;5.85;;
22764;SDS011;11549;50.852;3.816;2023-02-20T11:57:03;11.68;;;5.28;;
22764;SDS011;11549;50.852;3.816;2023-02-20T11:59:37;15.88;;;6.35;;
22764;SDS011;11549;50.852;3.816;2023-02-20T12:02:23;13.40;;;6.45;;
22764;SDS011;11549;50.852;3.816;2023-02-20T12:05:00;15.95;;;9.65;;
22764;SDS011;11549;50.852;3.816;2023-02-20T12:07:34;24.80;;;12.95;;
22764;SDS011;11549;50.852;3.816;2023-02-20T12:12:41;12.13;;;6.05;;
22764;SDS011;11549;50.852;3.816;2023-02-20T12:15:11;13.45;;;6.03;;
22764;SDS011;11549;50.852;3.816;2023-02-20T12:17:44;13.35;;;6.57;;
22764;SDS011;11549;50.852;3.816;2023-02-20T12:20:32;13.88;;;5.85;;
22764;SDS011;11549;50.852;3.816;2023-02-20T12:23:07;14.50;;;5.72;;
22764;SDS011;11549;50.852;3.816;2023-02-20T12:25:48;13.52;;;5.60;;
22764;SDS011;11549;50.852;3.816;2023-02-20T12:28:31;14.75;;;5.35;;
22764;SDS011;11549;50.852;3.816;2023-02-20T12:31:10;20.60;;;5.65;;
22764;SDS011;11549;50.852;3.816;2023-02-20T12:33:50;13.63;;;5.70;;
22764;SDS011;11549;50.852;3.816;2023-02-20T12:36:28;13.65;;;5.47;;
22764;SDS011;11549;50.852;3.816;2023-02-20T12:39:05;13.63;;;6.03;;
22764;SDS011;11549;50.852;3.816;2023-02-20T12:41:44;15.20;;;5.63;;
22764;SDS011;11549;50.852;3.816;2023-02-20T12:44:27;15.07;;;6.32;;
22764;SDS011;11549;50.852;3.816;2023-02-20T12:47:13;13.82;;;5.88;;
22764;SDS011;11549;50.852;3.816;2023-02-20T12:49:51;16.23;;;5.40;;
22764;SDS011;11549;50.852;3.816;2023-02-20T12:52:45;13.88;;;6.00;;
22764;SDS011;11549;50.852;3.816;2023-02-20T12:55:25;13.30;;;5.32;;
22764;SDS011;11549;50.852;3.816;2023-02-20T12:58:08;13.18;;;5.57;;
22764;SDS011;11549;50.852;3.816;2023-02-20T13:00:44;14.70;;;5.35;;
22764;SDS011;11549;50.852;3.816;2023-02-20T13:03:15;11.68;;;4.95;;
22764;SDS011;11549;50.852;3.816;2023-02-20T13:05:47;12.63;;;5.28;;
22764;SDS011;11549;50.852;3.816;2023-02-20T13:08:20;14.15;;;5.70;;
22764;SDS011;11549;50.852;3.816;2023-02-20T13:10:56;14.10;;;5.35;;
22764;SDS011;11549;50.852;3.816;2023-02-20T13:13:27;15.13;;;5.78;;
22764;SDS011;11549;50.852;3.816;2023-02-20T13:16:05;14.38;;;6.05;;
22764;SDS011;11549;50.852;3.816;2023-02-20T13:18:38;12.38;;;5.72;;
22764;SDS011;11549;50.852;3.816;2023-02-20T13:21:15;15.43;;;6.18;;
22764;SDS011;11549;50.852;3.816;2023-02-20T13:23:45;15.93;;;6.38;;
22764;SDS011;11549;50.852;3.816;2023-02-20T13:29:15;25.27;;;13.25;;
22764;SDS011;11549;50.852;3.816;2023-02-20T13:31:48;17.10;;;10.52;;
22764;SDS011;11549;50.852;3.816;2023-02-20T13:34:29;17.25;;;9.40;;
22764;SDS011;11549;50.852;3.816;2023-02-20T13:37:05;12.77;;;5.80;;
22764;SDS011;11549;50.852;3.816;2023-02-20T13:43:18;15.68;;;6.40;;
22764;SDS011;11549;50.852;3.816;2023-02-20T13:46:13;13.55;;;6.03;;
22764;SDS011;11549;50.852;3.816;2023-02-20T13:48:50;12.02;;;6.32;;
22764;SDS011;11549;50.852;3.816;2023-02-20T13:54:16;14.20;;;6.20;;
22764;SDS011;11549;50.852;3.816;2023-02-20T13:56:55;12.63;;;6.07;;
22764;SDS011;11549;50.852;3.816;2023-02-20T13:59:30;13.10;;;6.38;;
22764;SDS011;11549;50.852;3.816;2023-02-20T14:02:01;11.93;;;6.68;;
22764;SDS011;11549;50.852;3.816;2023-02-20T14:04:31;13.25;;;6.88;;
22764;SDS011;11549;50.852;3.816;2023-02-20T14:07:00;15.60;;;6.95;;
22764;SDS011;11549;50.852;3.816;2023-02-20T14:09:29;13.80;;;7.03;;
22764;SDS011;11549;50.852;3.816;2023-02-20T14:12:02;16.13;;;7.55;;
22764;SDS011;11549;50.852;3.816;2023-02-20T14:14:35;15.48;;;7.60;;
22764;SDS011;11549;50.852;3.816;2023-02-20T14:17:10;15.32;;;7.03;;
22764;SDS011;11549;50.852;3.816;2023-02-20T14:19:42;14.65;;;6.85;;
22764;SDS011;11549;50.852;3.816;2023-02-20T14:22:23;17.80;;;7.38;;
22764;SDS011;11549;50.852;3.816;2023-02-20T14:25:01;16.50;;;8.18;;
22764;SDS011;11549;50.852;3.816;2023-02-20T14:27:44;18.50;;;8.35;;
22764;SDS011;11549;50.852;3.816;2023-02-20T14:30:18;16.13;;;7.97;;
22764;SDS011;11549;50.852;3.816;2023-02-20T14:32:48;15.48;;;7.65;;
22764;SDS011;11549;50.852;3.816;2023-02-20T14:35:29;18.95;;;7.72;;
22764;SDS011;11549;50.852;3.816;2023-02-20T14:38:26;16.42;;;7.70;;
22764;SDS011;11549;50.852;3.816;2023-02-20T14:41:09;11.90;;;7.10;;
22764;SDS011;11549;50.852;3.816;2023-02-20T14:43:39;17.35;;;7.22;;
22764;SDS011;11549;50.852;3.816;2023-02-20T14:46:14;14.35;;;6.80;;
22764;SDS011;11549;50.852;3.816;2023-02-20T14:48:48;14.85;;;7.38;;
22764;SDS011;11549;50.852;3.816;2023-02-20T14:51:29;13.18;;;7.20;;
22764;SDS011;11549;50.852;3.816;2023-02-20T14:53:58;14.75;;;6.32;;
22764;SDS011;11549;50.852;3.816;2023-02-20T14:56:28;11.82;;;6.18;;
22764;SDS011;11549;50.852;3.816;2023-02-20T14:59:14;12.88;;;7.13;;
22764;SDS011;11549;50.852;3.816;2023-02-20T15:01:44;13.15;;;6.55;;
22764;SDS011;11549;50.852;3.816;2023-02-20T15:04:14;14.20;;;6.82;;
22764;SDS011;11549;50.852;3.816;2023-02-20T15:06:44;15.82;;;6.28;;
22764;SDS011;11549;50.852;3.816;2023-02-20T15:09:15;14.63;;;6.70;;
22764;SDS011;11549;50.852;3.816;2023-02-20T15:11:49;15.98;;;6.65;;
22764;SDS011;11549;50.852;3.816;2023-02-20T15:14:25;14.77;;;7.40;;
22764;SDS011;11549;50.852;3.816;2023-02-20T15:17:06;14.48;;;6.82;;
22764;SDS011;11549;50.852;3.816;2023-02-20T15:19:45;14.60;;;7.10;;
22764;SDS011;11549;50.852;3.816;2023-02-20T15:25:12;11.75;;;5.70;;
22764;SDS011;11549;50.852;3.816;2023-02-20T15:28:02;12.57;;;7.00;;
22764;SDS011;11549;50.852;3.816;2023-02-20T15:30:33;11.50;;;6.72;;
22764;SDS011;11549;50.852;3.816;2023-02-20T15:33:06;13.57;;;7.20;;
22764;SDS011;11549;50.852;3.816;2023-02-20T15:35:35;19.20;;;8.10;;
22764;SDS011;11549;50.852;3.816;2023-02-20T15:38:04;13.07;;;7.07;;
22764;SDS011;11549;50.852;3.816;2023-02-20T15:40:34;14.57;;;7.28;;